Time;durP1;ratioP1;P1;durP2;ratioP2;P2;SDS_P1;SDS_P2;PMS_P1;PMS_P2;Temp;Humidity;BMP_temperature;BMP_pressure;BME280_temperature;BME280_humidity;BME280_pressure;Samples;Min_cycle;Max_cycle;Signal;HPM_P1;HPM_P2
2022/09/01 00:01:38;;;;;;;7.57;5.90;;;21.10;80.30;;;;;;5075289;28;20028;-11
2022/09/01 00:04:07;;;;;;;8.23;5.20;;;21.10;80.30;;;;;;5075179;28;20479;-12
2022/09/01 00:06:34;;;;;;;7.97;5.78;;;21.10;80.30;;;;;;5075339;28;20016;-12
2022/09/01 00:09:05;;;;;;;8.00;6.13;;;21.10;80.20;;;;;;5074957;28;20029;-12
2022/09/01 00:11:32;;;;;;;10.00;7.40;;;21.00;80.30;;;;;;5075198;28;20025;-12
2022/09/01 00:14:00;;;;;;;7.97;6.03;;;21.00;80.50;;;;;;5075288;28;20029;-11
2022/09/01 00:16:27;;;;;;;8.10;6.05;;;21.00;80.50;;;;;;5075271;28;20020;-12
2022/09/01 00:18:54;;;;;;;8.82;6.68;;;21.00;80.60;;;;;;5073394;28;20025;-13
2022/09/01 00:21:27;;;;;;;7.97;5.95;;;21.00;80.50;;;;;;5075096;28;20021;-11
2022/09/01 00:23:53;;;;;;;6.97;5.57;;;21.00;80.60;;;;;;5075191;28;20054;-12
2022/09/01 00:26:19;;;;;;;10.82;6.20;;;20.90;80.70;;;;;;5074791;28;20481;-11
2022/09/01 00:28:45;;;;;;;11.57;8.25;;;21.00;80.70;;;;;;5074745;28;20112;-12
2022/09/01 00:31:13;;;;;;;11.05;7.78;;;20.90;81.00;;;;;;5074455;28;20017;-11
2022/09/01 00:33:40;;;;;;;8.90;6.20;;;20.90;80.90;;;;;;5074650;28;20452;-12
2022/09/01 00:36:07;;;;;;;10.10;6.28;;;20.90;81.00;;;;;;5074665;28;20024;-12
2022/09/01 00:38:34;;;;;;;9.02;6.40;;;20.90;81.10;;;;;;5074710;28;20036;-13
2022/09/01 00:41:00;;;;;;;13.05;8.18;;;20.90;81.10;;;;;;5074302;28;20032;-12
2022/09/01 00:43:49;;;;;;;10.27;6.68;;;20.90;81.10;;;;;;5074745;28;20039;-12
2022/09/01 00:46:23;;;;;;;10.40;6.55;;;20.90;81.10;;;;;;5074722;28;20025;-13
2022/09/01 00:49:00;;;;;;;10.60;6.68;;;20.90;81.00;;;;;;5073964;28;20459;-12
2022/09/01 00:51:28;;;;;;;7.93;6.13;;;20.90;81.00;;;;;;5074265;28;20032;-13
2022/09/01 00:53:55;;;;;;;9.13;7.22;;;20.90;81.00;;;;;;5074257;28;20028;-12
2022/09/01 00:56:22;;;;;;;11.48;7.72;;;20.90;81.10;;;;;;5074485;28;20036;-11
2022/09/01 00:58:50;;;;;;;10.50;6.40;;;20.90;81.10;;;;;;5073550;28;20070;-13
2022/09/01 01:01:17;;;;;;;8.30;6.30;;;20.90;81.20;;;;;;5073966;28;20462;-13
2022/09/01 01:03:45;;;;;;;11.90;8.32;;;20.90;81.20;;;;;;5074299;28;20025;-12
2022/09/01 01:06:15;;;;;;;11.75;8.07;;;20.90;81.40;;;;;;5073888;28;20492;-12
2022/09/01 01:08:56;;;;;;;8.93;6.32;;;20.80;81.30;;;;;;5074750;28;20024;-12
2022/09/01 01:11:25;;;;;;;10.75;6.78;;;20.90;81.30;;;;;;5074766;28;20032;-11
2022/09/01 01:14:08;;;;;;;8.80;6.97;;;20.80;81.30;;;;;;5073837;28;20024;-13
2022/09/01 01:16:34;;;;;;;10.73;8.47;;;20.80;81.40;;;;;;5074649;28;20028;-13
2022/09/01 01:19:01;;;;;;;10.27;7.88;;;20.80;81.40;;;;;;5073770;28;20032;-12
2022/09/01 01:24:26;;;;;;;9.38;6.60;;;20.80;81.50;;;;;;5073730;28;20082;-13
2022/09/01 01:26:57;;;;;;;8.70;6.10;;;20.80;81.50;;;;;;5073419;28;20489;-12
2022/09/01 01:29:24;;;;;;;7.88;6.05;;;20.80;81.40;;;;;;5073924;28;20024;-12
2022/09/01 01:31:52;;;;;;;11.07;6.75;;;20.80;81.30;;;;;;5073450;28;20038;-13
2022/09/01 01:34:19;;;;;;;9.15;6.30;;;20.80;81.70;;;;;;5074211;28;20029;-13
2022/09/01 01:36:47;;;;;;;8.18;6.00;;;20.80;81.50;;;;;;5073654;28;20401;-12
2022/09/01 01:39:18;;;;;;;8.82;6.05;;;20.80;81.50;;;;;;5073613;28;20033;-12
2022/09/01 01:41:47;;;;;;;7.35;4.90;;;20.80;81.30;;;;;;5073906;28;20012;-12
2022/09/01 01:44:16;;;;;;;9.40;6.20;;;20.80;81.20;;;;;;5073625;28;20028;-11
2022/09/01 01:46:49;;;;;;;8.23;5.75;;;20.70;81.30;;;;;;5073603;28;20020;-11
2022/09/01 01:49:20;;;;;;;8.17;6.03;;;20.70;81.10;;;;;;5072046;28;20076;-12
2022/09/01 01:51:48;;;;;;;11.95;8.55;;;20.70;81.40;;;;;;5073300;28;20495;-12
2022/09/01 01:54:18;;;;;;;10.50;7.70;;;20.70;82.40;;;;;;5073362;28;20201;-12
2022/09/01 01:56:44;;;;;;;10.15;7.72;;;20.60;82.60;;;;;;5073592;28;20039;-11
2022/09/01 01:59:13;;;;;;;11.88;7.57;;;20.60;82.00;;;;;;5072676;28;20036;-12
2022/09/01 02:01:41;;;;;;;11.05;7.53;;;20.60;82.50;;;;;;5073163;28;20036;-12
2022/09/01 02:04:10;;;;;;;12.40;7.10;;;20.60;82.50;;;;;;5073065;28;20097;-12
2022/09/01 02:06:40;;;;;;;14.55;8.90;;;20.60;82.30;;;;;;5072938;28;20017;-13
2022/09/01 02:09:07;;;;;;;11.57;8.07;;;20.60;82.30;;;;;;5072891;28;20434;-12
2022/09/01 02:11:36;;;;;;;12.68;8.38;;;20.50;82.30;;;;;;5073351;28;20025;-12
2022/09/01 02:14:05;;;;;;;12.45;9.00;;;20.50;83.00;;;;;;5073351;28;20059;-13
2022/09/01 02:16:33;;;;;;;15.23;10.50;;;20.50;82.60;;;;;;5073579;28;20056;-12
2022/09/01 02:19:00;;;;;;;9.55;7.50;;;20.50;82.40;;;;;;5072895;28;20021;-12
2022/09/01 02:21:28;;;;;;;9.60;6.93;;;20.50;82.40;;;;;;5073198;28;20059;-11
2022/09/01 02:24:01;;;;;;;8.70;6.47;;;20.40;82.80;;;;;;5072988;28;20025;-13
2022/09/01 02:26:44;;;;;;;8.85;5.93;;;20.40;82.50;;;;;;5073271;28;20479;-11
2022/09/01 02:29:20;;;;;;;8.82;5.85;;;20.40;82.00;;;;;;5073066;28;20472;-12
2022/09/01 02:31:52;;;;;;;6.00;4.93;;;20.40;81.70;;;;;;5072858;28;20379;-12
2022/09/01 02:34:19;;;;;;;7.95;5.38;;;20.40;81.50;;;;;;5073019;28;20117;-12
2022/09/01 02:36:48;;;;;;;6.47;4.68;;;20.40;81.20;;;;;;5072802;28;20025;-12
2022/09/01 02:39:21;;;;;;;12.40;5.47;;;20.40;80.90;;;;;;5072642;28;20028;-12
2022/09/01 02:41:48;;;;;;;;;;;20.40;80.70;;;;;;5073549;28;20141;-12
2022/09/01 02:44:14;;;;;;;7.75;5.22;;;20.50;80.80;;;;;;5072740;28;19908;-12
2022/09/01 02:46:42;;;;;;;6.05;4.35;;;20.50;80.40;;;;;;5072703;28;20040;-12
2022/09/01 02:49:16;;;;;;;6.90;4.00;;;20.40;80.10;;;;;;5072332;28;20070;-12
2022/09/01 02:51:49;;;;;;;4.85;3.78;;;20.40;79.90;;;;;;5073203;28;20571;-13
2022/09/01 02:54:16;;;;;;;5.40;4.10;;;20.50;79.80;;;;;;5072654;28;20036;-12
2022/09/01 02:56:46;;;;;;;5.22;4.18;;;20.40;79.70;;;;;;5072532;28;20077;-12
2022/09/01 02:59:20;;;;;;;6.82;3.90;;;20.50;79.50;;;;;;5072339;28;20044;-13
2022/09/01 03:01:48;;;;;;;6.53;4.10;;;20.40;79.30;;;;;;5072918;28;20154;-12
2022/09/01 03:04:16;;;;;;;5.18;3.90;;;20.50;79.20;;;;;;5072441;28;20115;-11
2022/09/01 03:06:43;;;;;;;4.85;3.88;;;20.40;79.20;;;;;;5072469;28;20024;-12
2022/09/01 03:09:14;;;;;;;7.10;4.03;;;20.50;79.20;;;;;;5072316;28;20388;-12
2022/09/01 03:11:43;;;;;;;6.53;3.83;;;20.50;79.20;;;;;;5072523;28;20503;-12
2022/09/01 03:14:11;;;;;;;6.18;4.03;;;20.50;78.80;;;;;;5072757;28;20108;-12
2022/09/01 03:16:38;;;;;;;5.97;3.78;;;20.50;78.90;;;;;;5072416;28;20025;-11
2022/09/01 03:19:10;;;;;;;5.25;4.10;;;20.50;78.80;;;;;;5073217;28;20071;-11
2022/09/01 03:21:39;;;;;;;6.00;4.10;;;20.50;78.70;;;;;;5076353;28;20032;-12
2022/09/01 03:24:13;;;;;;;4.82;3.70;;;20.50;78.40;;;;;;5076220;28;20033;-12
2022/09/01 03:26:41;;;;;;;5.82;3.92;;;20.50;78.40;;;;;;5076279;28;20036;-12
2022/09/01 03:29:07;;;;;;;5.13;3.85;;;20.50;77.90;;;;;;5075903;28;20055;-12
2022/09/01 03:31:34;;;;;;;5.35;3.95;;;20.50;77.90;;;;;;5076113;28;20028;-12
2022/09/01 03:34:02;;;;;;;6.35;3.65;;;20.50;77.80;;;;;;5076264;28;20481;-12
2022/09/01 03:36:29;;;;;;;4.65;3.53;;;20.50;77.70;;;;;;5076174;28;20020;-12
2022/09/01 03:38:56;;;;;;;6.63;3.95;;;20.50;77.50;;;;;;5075467;28;20090;-12
2022/09/01 03:41:27;;;;;;;4.13;3.20;;;20.50;77.40;;;;;;5076128;28;20040;-13
2022/09/01 03:43:59;;;;;;;4.32;3.17;;;20.50;77.10;;;;;;5076470;28;20074;-12
2022/09/01 03:46:29;;;;;;;5.55;3.78;;;20.50;77.20;;;;;;5075669;28;20036;-12
2022/09/01 03:49:04;;;;;;;4.60;3.20;;;20.50;77.10;;;;;;5076486;28;20033;-12
2022/09/01 03:51:30;;;;;;;6.22;3.70;;;20.50;77.10;;;;;;5075897;28;20169;-12
2022/09/01 03:53:58;;;;;;;4.43;3.25;;;20.50;76.90;;;;;;5075466;28;20029;-13
2022/09/01 03:56:26;;;;;;;4.55;3.40;;;20.50;76.80;;;;;;5075408;28;20032;-11
2022/09/01 03:58:55;;;;;;;4.65;3.03;;;20.50;76.90;;;;;;5075213;28;20052;-12
2022/09/01 04:01:21;;;;;;;4.30;3.17;;;20.50;76.80;;;;;;5075215;28;20032;-12
2022/09/01 04:03:47;;;;;;;4.30;3.00;;;20.50;76.60;;;;;;5075364;28;20016;-12
2022/09/01 04:06:17;;;;;;;4.22;3.13;;;20.50;76.40;;;;;;5075463;28;20131;-12
2022/09/01 04:08:45;;;;;;;4.57;3.10;;;20.50;76.50;;;;;;5075439;28;20028;-12
2022/09/01 04:11:17;;;;;;;5.07;3.05;;;20.40;76.40;;;;;;5075564;28;20017;-12
2022/09/01 04:13:45;;;;;;;4.72;3.40;;;20.40;76.00;;;;;;5075130;28;20099;-12
2022/09/01 04:19:24;;;;;;;4.25;3.13;;;20.40;75.80;;;;;;5074885;28;20538;-12
2022/09/01 04:21:58;;;;;;;4.70;2.80;;;20.40;75.50;;;;;;5074879;28;20033;-12
2022/09/01 04:24:29;;;;;;;3.70;3.03;;;20.40;75.50;;;;;;5075183;28;20032;-12
2022/09/01 04:26:58;;;;;;;3.03;2.72;;;20.40;75.40;;;;;;5075223;28;20036;-12
2022/09/01 04:29:28;;;;;;;2.95;2.67;;;20.40;75.20;;;;;;5074705;28;20116;-12
2022/09/01 04:32:02;;;;;;;3.85;2.70;;;20.40;75.30;;;;;;5074709;28;20488;-12
2022/09/01 04:34:35;;;;;;;3.45;2.80;;;20.40;75.20;;;;;;5074939;28;20024;-11
2022/09/01 04:37:19;;;;;;;4.22;3.17;;;20.40;74.90;;;;;;5074480;28;20446;-11
2022/09/01 04:39:51;;;;;;;4.47;3.00;;;20.40;75.20;;;;;;5074665;28;20033;-12
2022/09/01 04:42:20;;;;;;;3.70;3.10;;;20.40;75.10;;;;;;5074777;28;20036;-11
2022/09/01 04:44:47;;;;;;;3.20;2.72;;;20.30;75.00;;;;;;5074481;28;20031;-13
2022/09/01 04:47:15;;;;;;;4.13;3.25;;;20.30;75.10;;;;;;5074280;28;20035;-12
2022/09/01 04:49:47;;;;;;;3.85;2.63;;;20.30;74.90;;;;;;5074567;28;20104;-11
2022/09/01 04:52:14;;;;;;;4.63;2.60;;;20.40;74.80;;;;;;5074359;28;20540;-12
2022/09/01 04:54:39;;;;;;;4.55;2.80;;;20.40;74.80;;;;;;5074265;28;20089;-11
2022/09/01 04:57:06;;;;;;;4.00;2.50;;;20.40;74.70;;;;;;5074153;28;20103;-12
2022/09/01 04:59:32;;;;;;;4.00;2.70;;;20.40;75.00;;;;;;5073890;28;20090;-11
2022/09/01 05:02:00;;;;;;;3.80;2.60;;;20.30;74.50;;;;;;5074351;28;20047;-12
2022/09/01 05:04:32;;;;;;;3.10;2.60;;;20.40;74.60;;;;;;5073892;28;20024;-11
2022/09/01 05:07:00;;;;;;;3.40;2.57;;;20.40;74.50;;;;;;5073858;28;20025;-12
2022/09/01 05:09:34;;;;;;;3.53;2.83;;;20.40;74.80;;;;;;5072705;28;20028;-11
2022/09/01 05:12:09;;;;;;;2.70;2.50;;;20.40;74.70;;;;;;5074260;28;20024;-11
2022/09/01 05:14:43;;;;;;;3.90;2.50;;;20.40;74.80;;;;;;5074168;28;20020;-12
2022/09/01 05:17:11;;;;;;;2.72;2.47;;;20.40;74.70;;;;;;5074655;28;20056;-12
2022/09/01 05:19:41;;;;;;;3.42;2.75;;;20.40;74.70;;;;;;5073685;28;20166;-13
2022/09/01 05:22:10;;;;;;;3.72;2.72;;;20.40;74.60;;;;;;5073687;28;20033;-12
2022/09/01 05:24:36;;;;;;;7.03;2.85;;;20.40;74.60;;;;;;5073670;28;20035;-12
2022/09/01 05:27:06;;;;;;;4.60;2.50;;;20.40;74.70;;;;;;5073468;28;20377;-11
2022/09/01 05:29:36;;;;;;;2.40;2.20;;;20.40;74.60;;;;;;5073909;28;20477;-12
2022/09/01 05:32:07;;;;;;;2.65;2.45;;;20.40;74.20;;;;;;5074713;28;20028;-11
2022/09/01 05:34:36;;;;;;;5.22;2.70;;;20.40;74.20;;;;;;5073427;28;20028;-11
2022/09/01 05:37:04;;;;;;;2.72;2.33;;;20.40;74.10;;;;;;5073576;28;20124;-12
2022/09/01 05:39:30;;;;;;;4.78;2.40;;;20.50;74.00;;;;;;5073716;28;20119;-13
2022/09/01 05:41:59;;;;;;;4.38;2.47;;;20.60;74.20;;;;;;5072768;28;20029;-13
2022/09/01 05:44:25;;;;;;;2.80;2.38;;;20.60;73.80;;;;;;5073347;28;20563;-13
2022/09/01 05:46:52;;;;;;;2.97;2.50;;;20.70;73.70;;;;;;5073241;28;20104;-12
2022/09/01 05:49:18;;;;;;;3.80;2.60;;;20.70;73.80;;;;;;5073224;28;20036;-12
2022/09/01 05:51:50;;;;;;;4.35;2.60;;;20.80;73.50;;;;;;5073556;28;20027;-12
2022/09/01 05:54:21;;;;;;;6.28;2.80;;;20.90;73.40;;;;;;5073641;28;20085;-12
2022/09/01 05:56:48;;;;;;;4.80;2.65;;;20.90;73.00;;;;;;5073060;28;20468;-13
2022/09/01 05:59:15;;;;;;;7.00;2.60;;;21.00;72.20;;;;;;5073007;28;20049;-12
2022/09/01 06:01:43;;;;;;;5.20;2.42;;;21.00;72.40;;;;;;5073135;28;20131;-12
2022/09/01 06:04:09;;;;;;;4.32;2.67;;;21.20;72.40;;;;;;5073425;28;20116;-12
2022/09/01 06:06:44;;;;;;;6.00;2.30;;;21.20;71.90;;;;;;5073167;28;20024;-12
2022/09/01 06:09:12;;;;;;;2.88;1.95;;;21.30;70.40;;;;;;5072925;28;20104;-12
2022/09/01 06:11:39;;;;;;;4.78;2.13;;;21.40;70.60;;;;;;5073295;28;20124;-12
2022/09/01 06:14:10;;;;;;;2.22;1.92;;;21.40;69.50;;;;;;5073267;28;20024;-12
2022/09/01 06:16:37;;;;;;;2.85;1.73;;;21.50;67.70;;;;;;5073390;28;20054;-13
2022/09/01 06:19:03;;;;;;;3.08;1.90;;;21.50;68.40;;;;;;5072773;28;20539;-12
2022/09/01 06:21:30;;;;;;;2.40;2.10;;;21.60;68.80;;;;;;5072785;28;20033;-11
2022/09/01 06:23:57;;;;;;;4.00;1.70;;;21.70;68.40;;;;;;5073243;28;20032;-13
2022/09/01 06:26:33;;;;;;;2.33;1.65;;;21.80;67.50;;;;;;5073253;28;20028;-12
2022/09/01 06:29:03;;;;;;;2.38;1.77;;;21.90;67.20;;;;;;5072773;28;20376;-12
2022/09/01 06:31:38;;;;;;;2.38;1.90;;;21.90;67.60;;;;;;5072276;28;20494;-12
2022/09/01 06:34:07;;;;;;;2.08;1.90;;;21.90;67.40;;;;;;5073164;28;20027;-12
2022/09/01 06:36:35;;;;;;;2.63;1.63;;;22.00;67.60;;;;;;5073082;28;20024;-12
2022/09/01 06:39:03;;;;;;;2.50;1.50;;;22.10;67.30;;;;;;5072544;28;20028;-12
2022/09/01 06:41:30;;;;;;;2.35;1.92;;;22.10;67.10;;;;;;5072692;28;20028;-12
2022/09/01 06:43:59;;;;;;;1.85;1.48;;;22.20;65.70;;;;;;5072743;28;20032;-12
2022/09/01 06:46:26;;;;;;;2.42;1.60;;;22.30;66.40;;;;;;5072732;28;20453;-13
2022/09/01 06:48:53;;;;;;;2.80;1.95;;;22.30;66.30;;;;;;5072831;28;20021;-11
2022/09/01 06:51:21;;;;;;;1.83;1.50;;;22.30;66.50;;;;;;5072594;28;20491;-12
2022/09/01 06:53:49;;;;;;;2.83;1.75;;;22.40;66.40;;;;;;5075002;28;20488;-12
2022/09/01 06:56:17;;;;;;;1.90;1.80;;;22.40;66.60;;;;;;5076804;28;20047;-11
2022/09/01 06:58:47;;;;;;;1.67;1.55;;;22.60;66.60;;;;;;5076207;28;20400;-12
2022/09/01 07:01:18;;;;;;;2.50;1.67;;;22.70;66.90;;;;;;5076353;28;20029;-13
2022/09/01 07:03:47;;;;;;;2.47;1.52;;;22.70;65.70;;;;;;5076678;28;20036;-11
2022/09/01 07:06:14;;;;;;;4.07;1.75;;;22.90;65.50;;;;;;5076224;28;20036;-12
2022/09/01 07:08:48;;;;;;;2.15;1.60;;;22.90;65.90;;;;;;5076227;28;20032;-12
2022/09/01 07:11:29;;;;;;;3.50;1.60;;;22.90;65.30;;;;;;5076511;28;20107;-11
2022/09/01 07:14:00;;;;;;;1.98;1.55;;;23.10;65.30;;;;;;5076512;28;20035;-11
2022/09/01 07:16:29;;;;;;;1.80;1.40;;;23.30;65.20;;;;;;5076183;28;20463;-11
2022/09/01 07:18:59;;;;;;;1.75;1.35;;;23.50;64.30;;;;;;5075822;28;20435;-11
2022/09/01 07:21:27;;;;;;;1.48;1.38;;;23.50;62.50;;;;;;5075928;28;20503;-12
2022/09/01 07:23:52;;;;;;;2.22;1.70;;;23.50;62.60;;;;;;5076173;28;20060;-11
2022/09/01 07:26:20;;;;;;;1.42;0.98;;;23.50;64.40;;;;;;5076306;28;20052;-11
2022/09/01 07:28:49;;;;;;;2.13;1.50;;;23.50;63.20;;;;;;5076087;28;20115;-11
2022/09/01 07:31:44;;;;;;;1.50;1.40;;;23.50;63.70;;;;;;5075876;28;20032;-11
2022/09/01 07:34:13;;;;;;;1.70;1.35;;;23.50;63.00;;;;;;5073750;28;20047;-12
2022/09/01 07:36:41;;;;;;;2.63;1.50;;;23.50;62.80;;;;;;5073669;28;20031;-12
2022/09/01 07:39:09;;;;;;;2.15;1.33;;;23.60;63.50;;;;;;5073714;28;20116;-12
2022/09/01 07:41:40;;;;;;;1.38;1.15;;;23.50;62.70;;;;;;5073584;28;20215;-12
2022/09/01 07:44:11;;;;;;;1.58;1.40;;;23.60;62.90;;;;;;5073622;28;20068;-14
2022/09/01 07:46:37;;;;;;;2.38;1.30;;;23.80;63.00;;;;;;5073617;28;20021;-12
2022/09/01 07:49:03;;;;;;;1.45;1.20;;;24.10;62.80;;;;;;5073408;28;20075;-12
2022/09/01 07:51:30;;;;;;;1.63;1.10;;;24.30;62.90;;;;;;5073398;28;20062;-12
2022/09/01 07:54:01;;;;;;;2.30;1.50;;;24.50;62.20;;;;;;5073426;28;20466;-13
2022/09/01 07:56:29;;;;;;;2.47;1.35;;;24.70;61.70;;;;;;5073351;28;20059;-12
2022/09/01 07:58:58;;;;;;;1.30;1.05;;;24.80;61.80;;;;;;5072885;28;20139;-12
2022/09/01 08:01:27;;;;;;;2.17;1.40;;;24.90;60.60;;;;;;5073216;28;20440;-11
2022/09/01 08:03:56;;;;;;;3.72;1.20;;;25.00;58.80;;;;;;5073423;28;20032;-12
2022/09/01 08:06:25;;;;;;;2.17;1.20;;;25.10;59.50;;;;;;5072720;28;20396;-12
2022/09/01 08:08:53;;;;;;;2.83;1.30;;;25.10;59.50;;;;;;5072947;28;20475;-12
2022/09/01 08:11:28;;;;;;;3.42;1.42;;;25.00;60.20;;;;;;5075345;28;20040;-12
2022/09/01 08:13:57;;;;;;;1.35;1.25;;;25.10;59.00;;;;;;5075915;28;20047;-11
2022/09/01 08:16:28;;;;;;;2.60;1.10;;;25.10;58.90;;;;;;5075360;28;20032;-11
2022/09/01 08:18:55;;;;;;;2.25;1.50;;;25.30;59.10;;;;;;5075490;28;20081;-12
2022/09/01 08:21:23;;;;;;;0.98;0.98;;;25.50;59.60;;;;;;5075360;28;20108;-12
2022/09/01 08:23:53;;;;;;;2.53;1.30;;;25.90;59.30;;;;;;5074916;28;20059;-12
2022/09/01 08:26:23;;;;;;;1.52;1.42;;;26.10;58.80;;;;;;5074910;28;20028;-12
2022/09/01 08:28:50;;;;;;;1.25;1.15;;;26.30;58.30;;;;;;5074980;28;20027;-12
2022/09/01 08:31:18;;;;;;;2.13;1.23;;;26.40;58.10;;;;;;5074927;28;20025;-12
2022/09/01 08:33:47;;;;;;;2.10;1.20;;;26.40;58.00;;;;;;5074716;28;20028;-11
2022/09/01 08:36:15;;;;;;;3.25;1.40;;;26.40;57.40;;;;;;5074546;28;20396;-12
2022/09/01 08:38:42;;;;;;;6.18;1.55;;;26.50;55.50;;;;;;5074885;28;20029;-11
2022/09/01 08:41:31;;;;;;;1.63;1.15;;;26.60;56.10;;;;;;5074849;28;20369;-11
2022/09/01 08:44:10;;;;;;;1.90;1.40;;;26.80;55.20;;;;;;5074431;28;20499;-11
2022/09/01 08:46:42;;;;;;;2.45;1.30;;;26.90;54.40;;;;;;5074690;28;20052;-11
2022/09/01 08:49:19;;;;;;;1.88;1.17;;;27.00;54.80;;;;;;5074516;28;20021;-11
2022/09/01 08:51:58;;;;;;;1.60;1.30;;;27.30;55.80;;;;;;5074701;28;20032;-11
2022/09/01 08:54:42;;;;;;;2.08;1.50;;;27.60;53.70;;;;;;5074541;28;20419;-12
2022/09/01 08:57:19;;;;;;;3.63;1.10;;;27.90;53.10;;;;;;5074361;28;20047;-11
2022/09/01 08:59:45;;;;;;;2.30;1.27;;;28.20;52.40;;;;;;5074102;28;20078;-12
2022/09/01 09:02:34;;;;;;;1.92;1.17;;;28.40;50.50;;;;;;5074482;28;20032;-13
2022/09/01 09:05:06;;;;;;;1.40;1.30;;;28.20;52.60;;;;;;5074168;28;20122;-11
2022/09/01 09:08:14;;;;;;;1.33;1.20;;;28.00;52.10;;;;;;5074303;28;20036;-12
2022/09/01 09:10:57;;;;;;;1.83;1.02;;;27.70;52.90;;;;;;5071774;28;20032;-12
2022/09/01 09:13:30;;;;;;;;;;;27.80;51.60;;;;;;5072283;28;20073;-12
2022/09/01 09:16:15;;;;;;;1.00;1.00;;;27.90;51.00;;;;;;5072560;28;20054;-11
2022/09/01 09:18:49;;;;;;;2.50;1.13;;;28.20;51.60;;;;;;5074112;28;20032;-11
2022/09/01 09:21:39;;;;;;;2.72;1.30;;;28.40;50.70;;;;;;5074219;28;20039;-12
2022/09/01 09:27:21;;;;;;;3.50;1.27;;;28.40;52.30;;;;;;5073838;28;20388;-11
2022/09/01 09:29:53;;;;;;;1.05;0.95;;;28.20;52.00;;;;;;5073934;28;20028;-11
2022/09/01 09:32:21;;;;;;;1.25;1.15;;;28.10;51.90;;;;;;5073660;28;20078;-12
2022/09/01 09:34:48;;;;;;;2.08;1.30;;;27.90;52.90;;;;;;5073546;28;20024;-10
2022/09/01 09:37:26;;;;;;;1.20;1.10;;;27.70;52.60;;;;;;5073490;28;20066;-12
2022/09/01 09:40:17;;;;;;;1.90;1.15;;;27.40;53.00;;;;;;5073686;28;20060;-11
2022/09/01 09:43:05;;;;;;;1.27;1.20;;;27.70;51.80;;;;;;5073441;28;20035;-12
2022/09/01 09:45:37;;;;;;;2.15;1.40;;;28.20;54.50;;;;;;5073774;28;20028;-12
2022/09/01 09:48:07;;;;;;;1.30;1.20;;;28.40;50.80;;;;;;5073752;28;20095;-11
2022/09/01 09:50:38;;;;;;;1.50;1.30;;;28.60;51.80;;;;;;5073601;28;20116;-11
2022/09/01 09:53:13;;;;;;;1.88;1.13;;;29.00;52.00;;;;;;5073138;28;20016;-11
2022/09/01 09:55:54;;;;;;;1.02;0.90;;;29.50;49.50;;;;;;5073237;28;20047;-11
2022/09/01 09:58:25;;;;;;;2.58;0.98;;;29.90;49.60;;;;;;5073007;28;20592;-12
2022/09/01 10:01:28;;;;;;;1.90;0.82;;;30.00;49.10;;;;;;5072949;28;20037;-12
2022/09/01 10:04:00;;;;;;;2.67;0.80;;;30.30;46.30;;;;;;5072741;28;20129;-11
2022/09/01 10:06:44;;;;;;;3.05;0.80;;;30.30;46.30;;;;;;5073036;28;20067;-11
2022/09/01 10:09:36;;;;;;;2.05;0.90;;;30.30;47.50;;;;;;5073306;28;20113;-12
2022/09/01 10:12:05;;;;;;;1.50;1.08;;;30.70;44.70;;;;;;5073206;28;20032;-12
2022/09/01 10:14:41;;;;;;;1.77;0.70;;;30.90;46.80;;;;;;5073061;28;20036;-12
2022/09/01 10:17:18;;;;;;;0.43;0.43;;;31.00;45.70;;;;;;5072832;28;20025;-12
2022/09/01 10:19:57;;;;;;;1.00;0.90;;;31.30;44.10;;;;;;5073229;28;20025;-11
2022/09/01 10:22:24;;;;;;;1.48;0.80;;;31.20;43.30;;;;;;5073034;28;20404;-12
2022/09/01 10:24:50;;;;;;;1.10;1.00;;;30.90;44.30;;;;;;5073773;28;20166;-11
2022/09/01 10:27:22;;;;;;;0.70;0.70;;;30.40;45.70;;;;;;5071768;28;20054;-11
2022/09/01 10:30:07;;;;;;;0.93;0.80;;;30.40;46.30;;;;;;5077061;28;20025;-11
2022/09/01 10:32:43;;;;;;;1.33;0.55;;;30.60;44.90;;;;;;5077016;28;20266;-11
2022/09/01 10:35:18;;;;;;;0.63;0.60;;;30.80;44.90;;;;;;5076765;28;20020;-11
2022/09/01 10:37:46;;;;;;;0.68;0.68;;;31.00;45.30;;;;;;5077208;28;20498;-11
2022/09/01 10:40:32;;;;;;;2.80;0.77;;;30.80;44.90;;;;;;5076763;28;20035;-11
2022/09/01 10:43:33;;;;;;;0.77;0.77;;;30.90;43.00;;;;;;5076448;28;20035;-11
2022/09/01 10:46:06;;;;;;;0.77;0.77;;;31.10;45.90;;;;;;5074768;28;20067;-11
2022/09/01 10:48:35;;;;;;;0.70;0.70;;;31.40;44.40;;;;;;5074868;28;20044;-13
2022/09/01 10:51:13;;;;;;;1.02;0.75;;;31.70;45.40;;;;;;5074337;28;20025;-12
2022/09/01 10:53:41;;;;;;;0.73;0.60;;;31.70;42.90;;;;;;5074559;28;20037;-11
2022/09/01 10:56:14;;;;;;;1.17;0.63;;;31.60;43.50;;;;;;5074551;28;20077;-12
2022/09/01 10:59:00;;;;;;;0.60;0.60;;;31.40;43.90;;;;;;5074116;28;20466;-12
2022/09/01 11:01:38;;;;;;;1.00;0.90;;;31.70;42.80;;;;;;5074279;28;20098;-12
2022/09/01 11:04:06;;;;;;;1.80;0.60;;;32.00;40.60;;;;;;5074373;28;20029;-12
2022/09/01 11:06:42;;;;;;;1.15;0.60;;;32.30;42.00;;;;;;5074215;28;20059;-13
2022/09/01 11:09:44;;;;;;;1.95;0.88;;;32.60;39.80;;;;;;5074292;28;20033;-12
2022/09/01 11:12:17;;;;;;;0.75;0.70;;;32.90;39.50;;;;;;5074243;28;20045;-11
2022/09/01 11:14:53;;;;;;;0.70;0.70;;;33.30;39.70;;;;;;5074340;28;20078;-12
2022/09/01 11:17:27;;;;;;;0.85;0.65;;;33.40;38.80;;;;;;5074982;28;20036;-12
2022/09/01 11:19:57;;;;;;;1.52;0.93;;;33.60;39.00;;;;;;5073888;28;20366;-12
2022/09/01 11:22:28;;;;;;;1.42;0.98;;;33.60;39.70;;;;;;5075895;28;20117;-12
2022/09/01 11:25:31;;;;;;;0.80;0.80;;;33.90;39.90;;;;;;5075851;28;20039;-12
2022/09/01 11:28:01;;;;;;;0.93;0.93;;;33.50;40.50;;;;;;5075993;28;20028;-11
2022/09/01 11:30:30;;;;;;;0.88;0.88;;;33.70;40.50;;;;;;5076185;28;20052;-11
2022/09/01 11:33:17;;;;;;;0.85;0.70;;;33.50;38.00;;;;;;5075589;28;20036;-11
2022/09/01 11:35:45;;;;;;;1.65;0.93;;;33.20;39.20;;;;;;5075780;28;20032;-12
2022/09/01 11:38:15;;;;;;;2.90;0.82;;;33.10;40.70;;;;;;5076114;28;20025;-11
2022/09/01 11:40:42;;;;;;;1.77;1.00;;;33.50;40.20;;;;;;5074573;28;20032;-11
2022/09/01 11:43:15;;;;;;;0.70;0.70;;;33.60;39.00;;;;;;5075778;28;20480;-11
2022/09/01 11:45:56;;;;;;;2.20;0.93;;;34.00;38.30;;;;;;5075979;28;20059;-12
2022/09/01 11:48:25;;;;;;;1.25;1.02;;;34.00;39.30;;;;;;5076227;28;20028;-11
2022/09/01 11:51:00;;;;;;;1.88;1.00;;;33.60;39.50;;;;;;5075263;28;20485;-12
2022/09/01 11:53:27;;;;;;;1.58;0.80;;;33.50;40.50;;;;;;5075677;28;20032;-12
2022/09/01 11:55:56;;;;;;;2.30;1.10;;;33.90;39.60;;;;;;5075692;28;20560;-12
2022/09/01 11:58:29;;;;;;;0.98;0.98;;;34.40;38.70;;;;;;5073955;28;20056;-11
2022/09/01 12:01:12;;;;;;;1.20;1.02;;;34.80;37.70;;;;;;5075320;28;20468;-11
2022/09/01 12:03:38;;;;;;;;;;;34.60;38.00;;;;;;5076108;28;20020;-11
2022/09/01 12:06:08;;;;;;;6.63;1.17;;;34.50;37.60;;;;;;5075560;28;19911;-11
2022/09/01 12:08:50;;;;;;;0.88;0.88;;;34.70;39.00;;;;;;5075583;28;20016;-12
2022/09/01 12:11:23;;;;;;;2.83;1.35;;;34.90;38.40;;;;;;5075238;28;20036;-11
2022/09/01 12:14:02;;;;;;;1.70;1.10;;;34.90;37.50;;;;;;5075162;28;20021;-13
2022/09/01 12:16:30;;;;;;;2.85;1.23;;;35.00;36.40;;;;;;5075371;28;20373;-12
2022/09/01 12:18:58;;;;;;;3.58;1.38;;;35.10;37.50;;;;;;5075995;28;20032;-12
2022/09/01 12:21:31;;;;;;;2.05;1.35;;;35.60;36.20;;;;;;5074966;28;20040;-11
2022/09/01 12:24:16;;;;;;;1.92;1.40;;;36.20;35.70;;;;;;5074932;28;20476;-12
2022/09/01 12:26:44;;;;;;;3.00;1.40;;;35.60;35.00;;;;;;5075206;28;20026;-12
2022/09/01 12:29:12;;;;;;;3.00;1.38;;;36.00;34.90;;;;;;5074968;28;20480;-12
2022/09/01 12:31:45;;;;;;;4.22;1.38;;;36.20;34.70;;;;;;5074804;28;20026;-12
2022/09/01 12:34:32;;;;;;;2.58;1.40;;;36.60;35.00;;;;;;5074766;28;20504;-12
2022/09/01 12:37:11;;;;;;;3.33;1.23;;;37.00;34.30;;;;;;5074663;28;20024;-12
2022/09/01 12:39:43;;;;;;;3.72;1.30;;;37.00;35.70;;;;;;5074842;28;20028;-13
2022/09/01 12:42:26;;;;;;;4.70;1.63;;;37.40;34.20;;;;;;5074645;28;20555;-12
2022/09/01 12:45:04;;;;;;;3.22;1.23;;;37.10;33.70;;;;;;5074345;28;20020;-12
2022/09/01 12:47:37;;;;;;;3.30;1.40;;;37.20;34.00;;;;;;5074407;28;20023;-12
2022/09/01 12:50:05;;;;;;;;;;;37.50;33.50;;;;;;5074789;28;20040;-14
2022/09/01 12:52:43;;;;;;;6.15;1.60;;;38.00;32.40;;;;;;5074476;28;19958;-13
2022/09/01 12:55:38;;;;;;;6.05;1.60;;;38.40;32.00;;;;;;5074135;28;20068;-13
2022/09/01 12:58:08;;;;;;;4.15;1.55;;;38.50;31.90;;;;;;5072064;28;20052;-12
2022/09/01 13:01:00;;;;;;;4.97;1.45;;;38.60;31.30;;;;;;5072933;28;20111;-12
2022/09/01 13:03:28;;;;;;;6.83;2.13;;;38.30;31.20;;;;;;5063951;28;20427;-13
2022/09/01 13:05:57;;;;;;;4.57;1.52;;;37.60;32.70;;;;;;5071975;28;20502;-13
2022/09/01 13:08:27;;;;;;;2.60;1.48;;;37.00;33.60;;;;;;5072349;28;20033;-13
2022/09/01 13:10:57;;;;;;;3.85;1.58;;;36.60;35.10;;;;;;5071756;28;20055;-13
2022/09/01 13:13:25;;;;;;;8.40;2.03;;;36.80;34.60;;;;;;5071915;28;20040;-13
2022/09/01 13:15:54;;;;;;;4.45;1.80;;;37.00;33.60;;;;;;5072301;28;20040;-12
2022/09/01 13:18:22;;;;;;;6.93;1.88;;;36.60;34.50;;;;;;5071820;28;20021;-13
2022/09/01 13:20:51;;;;;;;4.95;1.83;;;36.00;34.60;;;;;;5071367;28;20049;-13